Weather observations for the past three days for
Sherman/Denison, Grayson County Airport
Imperial (Metric)
Date Time (cdt) Wind (mph) Vis. (mi.) Weather Sky Cond. Temperature (ºF) Relative Humidity Wind Chill (°F) Heat Index (°F) Pressure Precipitation (in)
Air Dwpt 6 hour altimeter (in) sea level (mb) 1 hr 3 hr 6 hr
Max. Min.
10 16:50 NE 7 9.00 Dust Storm CLR 64.4 62.6 94% 30.05 0.0
10 15:50 E 3 9.00 Thunderstorm in Vicinity Fog/Mist FEW060 BKN075 OVC090 64.4 62.6 94% 30.12 0.0
10 14:50 N 15 9.00 Thunderstorm in Vicinity OVC009 64.4 64.4 100% 30.09 0.0
10 13:50 NE 9 7.00 Thunderstorm Light Rain FEW007 SCT047 BKN065 OVC075 64.4 62.6 94% 30.08 0.0
10 12:50 NE 5 10.00 Thunderstorm in Vicinity FEW070 OVC095 66.2 64.4 94% 30.04 0.0
10 11:50 E 8 8.00 Light Rain Thunderstorm in Vicinity BKN050 OVC110 64.4 62.6 94% 30.04 0.0
10 10:50 N 20 G 30 1.25 Heavy Rain Fog/Mist Thunderstorm in Vicinity OVC007 62.6 60.8 94% 30.06 0.0
10 09:50 NE 10 10.00 Overcast SCT023 BKN060 BKN075 OVC085 68 62.6 83% 29.98 0.0
10 06:35 SE 9 10.00 Overcast OVC060 66 63.7 92% 29.94 0.0
10 06:15 SE 6 10.00 Overcast OVC065 66.6 63.3 89% 29.94 0.0
10 05:55 NE 6 10.00 Light Rain Thunderstorm in Vicinity OVC075 66.7 63.7 90% 29.94 0.0
10 05:35 SE 12 10.00 Overcast OVC080 66.9 63.9 90% 29.92 0.0
10 05:15 SE 8 10.00 Mostly Cloudy SCT090 BKN140 64.9 63.1 94% 29.92 0.0
10 04:55 SE 10 10.00 Mostly Cloudy FEW140 SCT230 BKN250 65.3 62.6 91% 29.91 0.0
10 04:35 SE 8 10.00 Mostly Cloudy BKN130 BKN150 65.1 61.5 88% 29.92 0.0
10 04:15 E 7 10.00 Thunderstorm in Vicinity FEW100 BKN130 OVC170 63.9 62.1 94% 29.94 0.0
10 03:55 SE 12 10.00 Thunderstorm in Vicinity FEW035 SCT050 SCT070 OVC160 65.3 61 86% 29.91 0.0 0.18 0.66
10 03:35 E 15 7.00 Light Rain Thunderstorm in Vicinity BKN055 OVC070 64.6 61.7 90% 29.89 0.0 0.18
10 03:15 W 9 7.00 Thunderstorm Rain OVC085 65.8 62.4 89% 29.98 0.0 0.06
10 02:55 N 17 G 23 9.00 Light Rain SCT080 BKN095 BKN120 BKN140 OVC160 69.3 62.2 78% 29.93 0.0
10 02:35 E 7 10.00 Overcast FEW070 BKN130 OVC160 67.6 64.4 89% 29.93 0.0
10 02:15 N 17 10.00 Overcast OVC130 67.3 61.9 83% 29.93 0.0
10 01:55 E 10 9.00 Thunderstorm in Vicinity SCT130 OVC160 67.6 62.6 84% 29.87 0.0 0.48
10 01:35 E 17 9.00 Thunderstorm FEW003 SCT055 OVC160 66.7 62.4 86% 29.88 0.0 0.48
10 01:15 E 22 G 29 2.00 Thunderstorm Heavy Rain Fog/Mist and Breezy SCT003 SCT030 OVC060 68.9 65.5 89% 29.89 0.0 0.45
10 00:55 N 15 4.00 Thunderstorm Heavy Rain Fog/Mist FEW003 BKN030 BKN039 OVC060 72.1 68.7 82.6 72.1 89% 29.95 0.0 0.18 0.18
10 00:35 N 9 10.00 Thunderstorm SCT031 SCT040 OVC065 75.2 68 78% 76 29.94 0.0
10 00:15 N 12 10.00 Overcast BKN065 BKN130 OVC150 74.7 67.1 77% 29.92 0.0
09 23:55 NE 13 10.00 Overcast FEW130 BKN150 OVC180 72.5 65.5 79% 29.88 0.0
09 23:35 E 8 10.00 Mostly Cloudy BKN170 74.3 64.8 72% 29.85 0.0
09 23:15 SE 12 10.00 Fair CLR 75 64.4 70% 77 29.81 0.0
09 22:55 SE 9 10.00 Partly Cloudy SCT180 75.2 63.5 67% 77 29.81 0.0
09 22:35 SE 10 10.00 Fair CLR 75.4 63.1 66% 77 29.8 0.0
09 22:15 SE 10 10.00 Fair CLR 75.6 63.1 65% 77 29.81 0.0
09 21:55 SE 8 10.00 Fair CLR 75.9 63.5 66% 78 29.81 0.0
09 21:35 SE 10 10.00 Fair CLR 76.1 63.7 66% 78 29.81 0.0
09 21:15 SE 8 10.00 Fair CLR 75.9 62.1 62% 78 29.8 0.0
09 20:55 SE 8 10.00 Fair CLR 75.7 62.8 64% 78 29.8 0.0
09 20:35 E 6 10.00 Fair CLR 76.1 63.7 66% 78 29.81 0.0
09 20:15 E 6 10.00 Fair CLR 77.2 63.9 64% 79 29.8 0.0
09 19:55 E 6 10.00 Fair CLR 79.5 64.4 60% 81 29.8 0.0
09 19:35 E 7 10.00 Fair CLR 80.4 64.9 59% 82 29.79 0.0
09 19:15 E 9 10.00 Fair CLR 81.9 64.6 56% 84 29.79 0.0
09 07:50 Calm 9.00 Partly Cloudy SCT007 68 66.2 94% 29.87 0.0
09 07:00 E 6 9.00 Fair CLR 66.2 64.4 94% 29.84 0.0
09 06:35 E 6 9.00 Fair CLR 64.8 63.9 97% 29.84 0.0
09 06:15 E 3 10.00 Partly Cloudy SCT026 65.3 64.2 96% 29.83 0.0
09 05:55 E 5 10.00 Overcast FEW018 OVC026 65.8 64.4 95% 29.82 0.0
09 05:35 E 6 10.00 Mostly Cloudy BKN026 65.8 64.2 95% 29.82 0.0
09 05:15 E 6 10.00 Partly Cloudy SCT027 65.5 64.2 96% 29.81 0.0
09 04:55 E 6 10.00 Fair CLR 65.7 64 95% 29.81 0.0
09 04:35 E 5 10.00 Fair CLR 65.8 64.2 95% 29.81 0.0
09 04:15 E 5 10.00 A Few Clouds FEW023 65.3 64 96% 29.81 0.0
09 03:55 NE 6 10.00 Fair CLR 65.8 64 94% 29.82 0.0
09 03:35 NE 6 10.00 Fair CLR 66 64.2 94% 29.81 0.0
09 03:15 E 5 10.00 Fair CLR 67.3 64.4 91% 29.81 0.0
09 02:55 E 8 10.00 Partly Cloudy FEW020 SCT180 69.6 65.1 86% 29.82 0.0
09 02:35 SE 8 10.00 Mostly Cloudy FEW021 BKN180 69.3 64.9 86% 29.82 0.0
09 02:15 E 3 10.00 A Few Clouds FEW026 69.1 64.6 86% 29.83 0.0
09 01:55 SE 8 10.00 Mostly Cloudy BKN021 BKN033 69.1 64.2 85% 29.84 0.0
09 01:35 SE 10 10.00 Overcast BKN021 OVC029 69.1 64 84% 29.85 0.0
09 01:15 SE 10 10.00 Overcast OVC021 69.4 64 83% 29.85 0.0
09 00:55 E 8 10.00 Overcast OVC018 69.8 64.2 77 67.3 83% 29.86 0.0
09 00:35 N 6 10.00 Mostly Cloudy BKN018 69.3 64.2 84% 29.88 0.0
09 00:15 NE 10 8.00 Partly Cloudy FEW020 SCT170 68.2 63.9 86% 29.84 0.0
08 23:55 SW 12 8.00 A Few Clouds FEW230 67.8 63.5 86% 29.82 0.0
08 23:35 SW 12 8.00 Partly Cloudy FEW240 SCT280 67.3 63.5 88% 29.83 0.0
08 23:15 SW 8 3.00 A Few Clouds with Haze FEW280 67.8 63.3 86% 29.85 0.0
08 22:55 S 8 10.00 Fair CLR 68 63.1 85% 29.83 0.0
08 22:35 S 5 10.00 Fair CLR 69.3 63.3 81% 29.83 0.0
08 22:15 SE 6 10.00 Thunderstorm in Vicinity FEW240 70.5 63.5 79% 29.82 0.0
08 21:55 SE 7 9.00 Mostly Cloudy BKN230 70.9 63.7 78% 29.82 0.0
08 21:35 S 9 10.00 Partly Cloudy FEW038 SCT230 71.8 63.7 76% 29.82 0.0
08 21:15 S 12 10.00 Mostly Cloudy SCT030 SCT038 BKN065 BKN085 72.5 63.7 74% 29.82 0.0
08 20:55 SE 7 10.00 Partly Cloudy FEW029 SCT065 72.3 63.9 75% 29.82 0.0
08 20:35 SE 9 10.00 Mostly Cloudy BKN030 73 63.9 73% 29.8 0.0
08 20:15 S 7 10.00 Overcast OVC029 73.8 63.9 71% 29.8 0.0
08 19:55 S 9 10.00 Overcast OVC031 75 63.3 67% 77 29.79 0.0
08 19:35 S 10 10.00 Mostly Cloudy BKN032 75.6 63.3 66% 77 29.79 0.0
08 19:15 S 14 10.00 Fair CLR 76.5 63.3 64% 78 29.78 0.0
08 18:50 S 13 10.00 Fair CLR 77 64.4 65% 79 29.77 0.0
08 17:50 S 13 10.00 Fair CLR 78.8 62.6 58% 80 29.78 0.0
08 16:50 S 8 10.00 Fair CLR 80.6 62.6 54% 82 29.79 0.0
08 14:50 S 13 10.00 Fair CLR 78.8 59 51% 80 29.84 0.0
08 13:50 SE 5 10.00 A Few Clouds FEW055 77 59 54% 79 29.86 0.0
08 11:50 S 12 10.00 Mostly Cloudy BKN065 71.6 59 65% 29.94 0.0
08 10:50 S 6 10.00 Partly Cloudy SCT080 69.8 57.2 64% 29.96 0.0
08 09:50 S 3 10.00 Mostly Cloudy BKN090 62.6 57.2 83% 29.97 0.0
08 08:50 S 5 10.00 Mostly Cloudy FEW090 BKN110 60.8 55.4 83% 29.98 0.0
08 07:50 S 7 10.00 Mostly Cloudy BKN100 60.8 57.2 88% 29.98 0.0
08 07:00 S 7 7.00 Partly Cloudy SCT100 59 55.4 88% 29.98 0.0
08 06:35 S 6 8.00 A Few Clouds FEW100 56.8 54 90% 29.98 0.0
08 06:15 S 9 7.00 Partly Cloudy SCT100 57.6 54.1 88% 29.97 0.0
08 05:55 S 7 9.00 Partly Cloudy SCT110 56.1 53.6 91% 29.96 0.0
08 05:35 S 7 9.00 Partly Cloudy SCT110 57.9 54 87% 29.96 0.0
08 05:15 S 7 8.00 A Few Clouds FEW110 56.3 53.4 90% 29.95 0.0
08 04:55 S 8 9.00 Partly Cloudy SCT130 56.7 53.6 90% 29.95 0.0
08 04:35 S 9 8.00 Fair CLR 56.1 52.9 89% 29.96 0.0
08 04:15 SE 8 9.00 Fair CLR 58.6 53.8 84% 29.95 0.0
08 03:55 S 7 9.00 A Few Clouds FEW190 57 52.9 86% 29.97 0.0
08 03:35 S 8 9.00 Mostly Cloudy BKN190 56.3 52.7 88% 29.97 0.0
08 03:15 S 6 8.00 Partly Cloudy FEW140 SCT180 56.1 52.3 87% 29.98 0.0
08 02:55 S 8 8.00 Fair CLR 55.2 52 89% 29.99 0.0
08 02:35 S 5 9.00 Fair CLR 57.2 52.2 83% 29.98 0.0
08 02:15 S 5 8.00 Fair CLR 56.3 52.3 87% 29.98 0.0
08 01:55 S 7 8.00 Partly Cloudy SCT140 56.5 52.9 88% 30 0.0
08 01:35 S 6 9.00 Mostly Cloudy BKN140 56.7 53.1 88% 30 0.0
08 01:15 S 7 9.00 Partly Cloudy SCT140 58.3 53.2 83% 30 0.0
08 00:55 S 7 9.00 Mostly Cloudy BKN130 59.9 53.4 71.1 59.2 79% 30.01 0.0
08 00:35 S 7 9.00 Overcast OVC130 60.4 53.6 78% 30.01 0.0
08 00:15 S 9 9.00 Partly Cloudy SCT130 59.4 53.6 81% 30.01 0.0
07 23:55 S 7 9.00 A Few Clouds FEW130 60.4 54.1 80% 30.01 0.0
07 23:35 S 7 9.00 A Few Clouds FEW130 60.4 54.3 80% 30.01 0.0
07 23:15 S 7 8.00 Fair CLR 61.2 54.1 78% 30.01 0.0
07 22:55 S 5 9.00 Fair CLR 61.2 53.6 76% 30.01 0.0
07 22:35 S 8 10.00 Fair CLR 62.1 53.2 73% 30.01 0.0
07 22:15 SE 8 10.00 Fair CLR 62.6 51.8 68% 30 0.0
07 21:55 SE 9 10.00 Fair CLR 63.5 48.9 59% 30 0.0
07 21:35 SE 7 9.00 Fair CLR 63.7 48.6 58% 29.99 0.0
07 21:15 SE 7 9.00 Fair CLR 64 49.3 59% 29.99 0.0
07 20:55 SE 7 10.00 Fair CLR 64.8 49.6 58% 29.98 0.0
07 20:35 SE 6 10.00 Fair CLR 65.5 49.3 56% 29.97 0.0
07 20:15 SE 6 9.00 Fair CLR 66.2 49.1 54% 29.97 0.0
07 19:55 SE 5 9.00 A Few Clouds FEW310 67.5 48.4 51% 29.98 0.0
07 19:35 SE 3 9.00 Fair CLR 68.9 46.4 45% 29.98 0.0
07 19:15 E 3 9.00 Fair CLR 68.9 47.1 46% 29.98 0.0
07 18:50 Calm 10.00 Fair CLR 71.6 48.2 44% 29.98 0.0
07 17:50 Calm 10.00 Fair CLR 71.6 44.6 38% 29.99 0.0
Date Time (cdt) Wind (mph) Vis. (mi.) Weather Sky Cond. Air Dwpt Max. Min. Relative Humidity Wind Chill (°F) Heat Index (°F) altimeter (in) sea level (mb) 1 hr 3 hr 6 hr
6 hour
Temperature (ºF) Pressure Precipitation (in)